Time;durP1;ratioP1;P1;durP2;ratioP2;P2;SDS_P1;SDS_P2;PMS_P1;PMS_P2;Temp;Humidity;BMP_temperature;BMP_pressure;BME280_temperature;BME280_humidity;BME280_pressure;Samples;Min_cycle;Max_cycle;Signal;HPM_P1;HPM_P2
2024/02/04 18:14:52;;;;;;;3.55;0.50;;;;;;;;;;5051326;27;58195;-79
2024/02/04 18:17:17;;;;;;;1.03;0.50;;;;;;;;;;5037225;28;58101;-80
2024/02/04 18:19:43;;;;;;;0.27;0.23;;;;;;;;;;5039614;28;58771;-81
2024/02/04 18:22:08;;;;;;;0.50;0.47;;;;;;;;;;5039919;28;58063;-79
2024/02/04 18:24:36;;;;;;;1.20;0.20;;;;;;;;;;5039201;28;58302;-80
2024/02/04 18:27:02;;;;;;;;;;;;;;;;;;5038455;28;58258;-80
2024/02/04 18:29:27;;;;;;;4.40;1.73;;;;;;;;;;5030515;28;57913;-80
2024/02/04 18:31:52;;;;;;;1.03;0.50;;;;;;;;;;5016544;28;59286;-80
2024/02/04 18:34:18;;;;;;;1.10;0.70;;;;;;;;;;5017353;28;57725;-80
2024/02/04 18:36:43;;;;;;;3.35;0.82;;;;;;;;;;5018728;28;58830;-80
2024/02/04 18:39:08;;;;;;;3.33;0.63;;;;;;;;;;5016914;28;58168;-81
2024/02/04 18:41:39;;;;;;;4.50;1.17;;;;;;;;;;5017039;28;58229;-78
2024/02/04 18:44:05;;;;;;;1.33;0.32;;;;;;;;;;5016903;28;59009;-80
2024/02/04 18:46:30;;;;;;;1.45;0.40;;;;;;;;;;5018348;28;59076;-80
2024/02/04 18:48:56;;;;;;;4.13;1.23;;;;;;;;;;5019622;28;57837;-81
2024/02/04 18:51:21;;;;;;;4.32;0.90;;;;;;;;;;5018074;28;59899;-81
2024/02/04 18:53:47;;;;;;;3.73;1.30;;;;;;;;;;5019230;28;57799;-80
2024/02/04 18:56:15;;;;;;;3.70;0.80;;;;;;;;;;5017664;28;58050;-80
2024/02/04 18:58:41;;;;;;;1.40;0.70;;;;;;;;;;5018375;28;57742;-79
2024/02/04 19:01:06;;;;;;;3.90;0.90;;;;;;;;;;5034702;28;59063;-80
2024/02/04 19:03:31;;;;;;;3.40;0.57;;;;;;;;;;5018319;28;60597;-81
2024/02/04 19:05:56;;;;;;;1.77;0.30;;;;;;;;;;5019128;28;58840;-80
2024/02/04 19:08:21;;;;;;;1.80;0.57;;;;;;;;;;5016847;28;58880;-81
2024/02/04 19:10:47;;;;;;;1.80;0.40;;;;;;;;;;5016633;28;58075;-79
2024/02/04 19:13:12;;;;;;;0.73;0.60;;;;;;;;;;5014542;28;57876;-80
2024/02/04 19:15:38;;;;;;;4.18;0.50;;;;;;;;;;5019769;28;57877;-81
2024/02/04 19:18:03;;;;;;;2.47;0.40;;;;;;;;;;5017411;28;59018;-79
2024/02/04 19:20:28;;;;;;;2.67;0.50;;;;;;;;;;5017011;28;58207;-80
2024/02/04 19:22:54;;;;;;;0.50;0.30;;;;;;;;;;5017444;28;59535;-80
2024/02/04 19:25:20;;;;;;;1.60;0.45;;;;;;;;;;5009272;28;57939;-79
2024/02/04 19:27:52;;;;;;;2.22;0.82;;;;;;;;;;5003821;28;58346;-78
2024/02/04 19:30:18;;;;;;;0.50;0.40;;;;;;;;;;5011747;28;59070;-79
2024/02/04 19:32:45;;;;;;;2.28;0.43;;;;;;;;;;5012300;28;58336;-78
2024/02/04 19:35:12;;;;;;;2.83;0.65;;;;;;;;;;5010433;28;58244;-81
2024/02/04 19:37:37;;;;;;;0.80;0.43;;;;;;;;;;5002217;28;59819;-81
2024/02/04 19:40:03;;;;;;;0.70;0.40;;;;;;;;;;5005711;28;58482;-82
2024/02/04 19:42:28;;;;;;;0.47;0.35;;;;;;;;;;5003342;28;58885;-82
2024/02/04 19:44:53;;;;;;;2.08;0.32;;;;;;;;;;5003280;28;57949;-81
2024/02/04 19:47:19;;;;;;;0.60;0.60;;;;;;;;;;5003309;28;58081;-80
2024/02/04 19:49:45;;;;;;;6.40;0.50;;;;;;;;;;5002719;28;58358;-81
2024/02/04 19:52:10;;;;;;;1.38;0.45;;;;;;;;;;5003267;28;58498;-83
2024/02/04 19:54:36;;;;;;;2.83;0.40;;;;;;;;;;5001207;28;58237;-81
2024/02/04 19:57:01;;;;;;;0.90;0.50;;;;;;;;;;4997321;28;58481;-81
2024/02/04 19:59:26;;;;;;;1.10;0.52;;;;;;;;;;5002378;28;58617;-81
2024/02/04 20:01:52;;;;;;;4.47;0.63;;;;;;;;;;5001788;28;58359;-81
2024/02/04 20:04:18;;;;;;;1.60;0.50;;;;;;;;;;5002467;28;58012;-81
2024/02/04 20:06:43;;;;;;;1.75;0.30;;;;;;;;;;5003690;28;59885;-80
2024/02/04 20:09:09;;;;;;;1.38;0.35;;;;;;;;;;5001871;28;57885;-81
2024/02/04 20:11:34;;;;;;;0.20;0.20;;;;;;;;;;5003151;28;59016;-81
2024/02/04 20:14:03;;;;;;;0.70;0.40;;;;;;;;;;5002629;28;58082;-80
2024/02/04 20:16:28;;;;;;;2.05;0.30;;;;;;;;;;4998793;28;58465;-81
2024/02/04 20:18:56;;;;;;;1.08;0.70;;;;;;;;;;5003671;28;58246;-82
2024/02/04 20:21:21;;;;;;;1.47;0.60;;;;;;;;;;5003560;28;58049;-83
2024/02/04 20:23:47;;;;;;;2.37;0.43;;;;;;;;;;5003689;28;58386;-83
2024/02/04 20:26:12;;;;;;;2.08;0.40;;;;;;;;;;5002980;28;58155;-85
2024/02/04 20:28:38;;;;;;;1.60;0.40;;;;;;;;;;5003191;28;58972;-80
2024/02/04 20:31:06;;;;;;;1.42;0.40;;;;;;;;;;5003351;28;58247;-82
2024/02/04 20:33:31;;;;;;;2.13;0.20;;;;;;;;;;5003055;28;57880;-82
2024/02/04 20:35:57;;;;;;;1.60;0.40;;;;;;;;;;5001043;28;58942;-84
2024/02/04 20:38:22;;;;;;;1.33;0.50;;;;;;;;;;5000378;28;58089;-82
2024/02/04 20:40:51;;;;;;;2.00;0.93;;;;;;;;;;5002265;28;58145;-82
2024/02/04 20:43:16;;;;;;;0.52;0.47;;;;;;;;;;5002010;28;59037;-82
2024/02/04 20:45:44;;;;;;;2.40;0.82;;;;;;;;;;5002615;28;59530;-81
2024/02/04 20:48:09;;;;;;;;;;;;;;;;;;5003050;28;59097;-80
2024/02/04 20:50:34;;;;;;;0.43;0.28;;;;;;;;;;5002087;28;58173;-81
2024/02/04 20:53:01;;;;;;;0.43;0.20;;;;;;;;;;5003610;28;57646;-80
2024/02/04 20:55:26;;;;;;;1.08;0.80;;;;;;;;;;5002129;28;59559;-80
2024/02/04 20:57:51;;;;;;;1.40;0.37;;;;;;;;;;5003170;28;58165;-80
2024/02/04 21:00:17;;;;;;;0.63;0.40;;;;;;;;;;5003132;28;58789;-80
2024/02/04 21:02:42;;;;;;;0.95;0.32;;;;;;;;;;5003318;28;58279;-79
2024/02/04 21:05:08;;;;;;;0.90;0.17;;;;;;;;;;5004932;28;58296;-79
2024/02/04 21:07:33;;;;;;;0.50;0.50;;;;;;;;;;5002042;28;58346;-80
2024/02/04 21:09:59;;;;;;;0.77;0.17;;;;;;;;;;5003466;28;57777;-80
2024/02/04 21:12:24;;;;;;;1.07;0.40;;;;;;;;;;5018443;28;59162;-80
2024/02/04 21:14:49;;;;;;;1.53;0.20;;;;;;;;;;5000693;28;58704;-81
2024/02/04 21:17:14;;;;;;;0.80;0.73;;;;;;;;;;5002309;28;58203;-80
2024/02/04 21:19:39;;;;;;;0.67;0.30;;;;;;;;;;5003245;28;58040;-81
2024/02/04 21:22:05;;;;;;;0.63;0.60;;;;;;;;;;5002804;28;58884;-80
2024/02/04 21:24:30;;;;;;;0.87;0.37;;;;;;;;;;5002633;28;58741;-81
2024/02/04 21:26:55;;;;;;;0.43;0.23;;;;;;;;;;5017494;28;57947;-81
2024/02/04 21:29:20;;;;;;;0.30;0.30;;;;;;;;;;5002208;28;57988;-81
2024/02/04 21:31:46;;;;;;;0.87;0.30;;;;;;;;;;5001590;28;59115;-80
2024/02/04 21:34:11;;;;;;;0.83;0.23;;;;;;;;;;5002522;28;58388;-79
2024/02/04 21:36:36;;;;;;;1.03;0.30;;;;;;;;;;5003148;28;58307;-80
2024/02/04 21:39:01;;;;;;;0.40;0.40;;;;;;;;;;5001986;28;58450;-80
2024/02/04 21:41:26;;;;;;;1.17;0.20;;;;;;;;;;5001460;28;60412;-80
2024/02/04 21:43:52;;;;;;;0.93;0.20;;;;;;;;;;5002177;28;58278;-80
2024/02/04 21:46:17;;;;;;;1.58;0.60;;;;;;;;;;5003418;28;58050;-80
2024/02/04 21:48:43;;;;;;;0.23;0.23;;;;;;;;;;5018819;28;60781;-81
2024/02/04 21:51:08;;;;;;;1.00;0.45;;;;;;;;;;5001839;28;58727;-82
2024/02/04 21:53:33;;;;;;;0.90;0.57;;;;;;;;;;5001336;28;58156;-82
2024/02/04 21:55:58;;;;;;;0.90;0.60;;;;;;;;;;5000042;28;58068;-80
2024/02/04 21:58:23;;;;;;;2.77;0.40;;;;;;;;;;4999066;28;57938;-80
2024/02/04 22:00:49;;;;;;;0.70;0.20;;;;;;;;;;4998951;28;60885;-82
2024/02/04 22:03:14;;;;;;;0.70;0.30;;;;;;;;;;5031850;28;59847;-82
2024/02/04 22:05:39;;;;;;;0.57;0.20;;;;;;;;;;5007723;28;58917;-81
2024/02/04 22:08:05;;;;;;;1.50;0.20;;;;;;;;;;4998575;28;58648;-75
2024/02/04 22:10:30;;;;;;;4.68;0.45;;;;;;;;;;5000207;28;58244;-75
2024/02/04 22:12:56;;;;;;;1.83;0.32;;;;;;;;;;4999523;28;59657;-75
2024/02/04 22:15:21;;;;;;;0.60;0.50;;;;;;;;;;4999901;28;59300;-75
2024/02/04 22:17:46;;;;;;;2.00;0.30;;;;;;;;;;4998581;28;58401;-75
2024/02/04 22:20:11;;;;;;;1.77;0.20;;;;;;;;;;4998943;28;59056;-75
2024/02/04 22:22:37;;;;;;;1.37;0.43;;;;;;;;;;5000463;28;58831;-76
2024/02/04 22:25:02;;;;;;;2.78;0.30;;;;;;;;;;4999239;28;58343;-75
2024/02/04 22:27:27;;;;;;;1.90;0.30;;;;;;;;;;4999861;28;59721;-76
2024/02/04 22:29:53;;;;;;;2.43;1.53;;;;;;;;;;4999812;28;58136;-76
2024/02/04 22:32:19;;;;;;;0.43;0.22;;;;;;;;;;4999465;28;58336;-75
2024/02/04 22:34:45;;;;;;;0.68;0.28;;;;;;;;;;4997309;28;58107;-76
2024/02/04 22:37:10;;;;;;;0.38;0.20;;;;;;;;;;5000766;28;57974;-75
2024/02/04 22:39:35;;;;;;;1.50;0.40;;;;;;;;;;4998412;28;60355;-75
2024/02/04 22:42:01;;;;;;;0.30;0.20;;;;;;;;;;4999189;28;58657;-75
2024/02/04 22:44:26;;;;;;;0.17;0.10;;;;;;;;;;4998809;28;59362;-75
2024/02/04 22:46:51;;;;;;;1.13;0.50;;;;;;;;;;4999680;28;59128;-76
2024/02/04 22:49:17;;;;;;;0.88;0.40;;;;;;;;;;4999756;28;58690;-75
2024/02/04 22:51:42;;;;;;;1.33;1.07;;;;;;;;;;5002201;28;58845;-75
2024/02/04 22:54:10;;;;;;;0.27;0.27;;;;;;;;;;5000091;28;58112;-75
2024/02/04 22:56:35;;;;;;;1.25;0.50;;;;;;;;;;5001802;28;58578;-75
2024/02/04 22:59:00;;;;;;;0.10;0.10;;;;;;;;;;5001710;28;58635;-75
2024/02/04 23:01:27;;;;;;;0.87;0.20;;;;;;;;;;5003886;28;58320;-76
2024/02/04 23:03:52;;;;;;;0.32;0.30;;;;;;;;;;5004068;28;59234;-75
2024/02/04 23:06:18;;;;;;;0.10;0.10;;;;;;;;;;5004734;28;59894;-77
2024/02/04 23:08:43;;;;;;;1.73;0.80;;;;;;;;;;5019373;28;58234;-77
2024/02/04 23:11:08;;;;;;;0.10;0.10;;;;;;;;;;5003769;28;58546;-78
2024/02/04 23:13:33;;;;;;;1.50;0.27;;;;;;;;;;5003324;28;58165;-76
2024/02/04 23:15:58;;;;;;;1.20;0.33;;;;;;;;;;5004540;28;58150;-77
2024/02/04 23:18:23;;;;;;;0.30;0.13;;;;;;;;;;5003821;28;58829;-77
2024/02/04 23:20:49;;;;;;;0.50;0.40;;;;;;;;;;5004402;28;58114;-75
2024/02/04 23:23:15;;;;;;;0.30;0.20;;;;;;;;;;5003605;28;58802;-75
2024/02/04 23:25:40;;;;;;;0.93;0.40;;;;;;;;;;5004759;28;59243;-74
2024/02/04 23:28:05;;;;;;;3.10;0.90;;;;;;;;;;5003968;28;58306;-77
2024/02/04 23:30:31;;;;;;;0.40;0.20;;;;;;;;;;5004607;28;59244;-76
2024/02/04 23:32:57;;;;;;;0.50;0.28;;;;;;;;;;5003765;28;59939;-74
2024/02/04 23:35:22;;;;;;;0.75;0.40;;;;;;;;;;5014844;28;58454;-76
2024/02/04 23:37:47;;;;;;;0.40;0.40;;;;;;;;;;5022534;28;58182;-76
2024/02/04 23:40:12;;;;;;;0.27;0.20;;;;;;;;;;5023337;28;58238;-77
2024/02/04 23:42:37;;;;;;;0.38;0.38;;;;;;;;;;5025435;28;58058;-76
2024/02/04 23:45:03;;;;;;;1.05;0.52;;;;;;;;;;5022428;28;59637;-76
2024/02/04 23:47:28;;;;;;;0.32;0.32;;;;;;;;;;5027276;28;58177;-76
2024/02/04 23:49:53;;;;;;;0.40;0.40;;;;;;;;;;5001965;28;58574;-76
2024/02/04 23:52:19;;;;;;;2.10;0.30;;;;;;;;;;5003766;28;58103;-77
2024/02/04 23:54:44;;;;;;;0.20;0.20;;;;;;;;;;5019978;28;58342;-74
2024/02/04 23:57:10;;;;;;;0.90;0.23;;;;;;;;;;5004441;28;58422;-76
2024/02/04 23:59:35;;;;;;;1.17;0.20;;;;;;;;;;5004268;28;59160;-74
